createdAt,value
2023-03-31T00:00:14.796Z,96980.94
2023-03-31T00:02:41.773Z,96980.66
2023-03-31T00:05:10.108Z,96980.13
2023-03-31T00:07:38.428Z,96979.03
2023-03-31T00:10:17.177Z,96978.47
2023-03-31T00:12:45.627Z,96987.59
2023-03-31T00:15:12.453Z,96977.91
2023-03-31T00:17:39.161Z,96971.69
2023-03-31T00:20:12.542Z,96966.84
2023-03-31T00:22:42.479Z,96966.84
2023-03-31T00:25:16.667Z,96958.22
2023-03-31T00:27:45.191Z,96959.31
2023-03-31T00:30:13.874Z,96962.00
2023-03-31T00:32:40.927Z,96961.19
2023-03-31T00:35:08.869Z,96961.47
2023-03-31T00:37:35.613Z,96951.50
2023-03-31T00:40:08.295Z,96963.59
2023-03-31T00:42:40.116Z,96959.00
2023-03-31T00:45:18.713Z,96965.16
2023-03-31T00:47:54.110Z,96965.16
2023-03-31T00:50:30.052Z,96959.50
2023-03-31T00:53:02.875Z,96953.84
2023-03-31T00:55:36.613Z,96954.38
2023-03-31T00:58:06.190Z,96945.47
2023-03-31T01:00:32.927Z,96947.84
2023-03-31T01:03:03.781Z,96941.94
2023-03-31T01:05:59.354Z,96934.94
2023-03-31T01:08:28.043Z,96913.91
2023-03-31T01:11:00.427Z,96919.88
2023-03-31T01:13:27.574Z,96911.81
2023-03-31T01:15:55.434Z,96924.97
2023-03-31T01:18:23.240Z,96920.94
2023-03-31T01:21:08.177Z,96919.56
2023-03-31T01:23:59.493Z,96920.38
2023-03-31T01:26:45.037Z,96915.81
2023-03-31T01:29:25.700Z,96909.41
2023-03-31T01:32:01.590Z,96907.53
2023-03-31T01:34:43.415Z,96912.59
2023-03-31T01:37:31.561Z,96903.75
2023-03-31T01:40:22.984Z,96906.44
2023-03-31T01:42:54.001Z,96897.28
2023-03-31T01:45:53.814Z,96895.69
2023-03-31T01:48:39.421Z,96887.06
2023-03-31T01:51:16.344Z,96876.84
2023-03-31T01:53:51.259Z,96884.38
2023-03-31T01:56:57.020Z,96874.69
2023-03-31T01:59:43.430Z,96860.72
2023-03-31T02:02:17.876Z,96863.13
2023-03-31T02:04:53.175Z,96860.44
2023-03-31T02:07:46.343Z,96846.19
2023-03-31T02:10:15.521Z,96839.75
2023-03-31T02:12:45.360Z,96839.22
2023-03-31T02:15:18.463Z,96832.81
2023-03-31T02:17:50.968Z,96815.34
2023-03-31T02:20:21.771Z,96819.09
2023-03-31T02:22:54.324Z,96824.19
2023-03-31T02:25:25.618Z,96824.69
2023-03-31T02:28:09.299Z,96821.44
2023-03-31T02:30:49.562Z,96810.72
2023-03-31T02:33:16.739Z,96820.66
2023-03-31T02:35:43.569Z,96822.28
2023-03-31T02:38:11.946Z,96815.56
2023-03-31T02:40:38.844Z,96811.78
2023-03-31T02:43:05.746Z,96808.59
2023-03-31T02:45:46.512Z,96808.31
2023-03-31T02:48:27.686Z,96815.50
2023-03-31T02:51:02.165Z,96803.69
2023-03-31T02:53:39.502Z,96802.09
2023-03-31T02:56:17.839Z,96796.44
2023-03-31T02:58:51.200Z,96798.03
2023-03-31T03:01:36.269Z,96795.03
2023-03-31T03:04:17.077Z,96794.53
2023-03-31T03:07:03.096Z,96795.31
2023-03-31T03:09:44.121Z,96793.44
2023-03-31T03:12:29.444Z,96795.63
2023-03-31T03:15:13.773Z,96782.19
2023-03-31T03:17:50.969Z,96782.16
2023-03-31T03:20:20.354Z,96778.13
2023-03-31T03:22:47.328Z,96775.41
2023-03-31T03:25:17.216Z,96772.72
2023-03-31T03:27:44.221Z,96763.88
2023-03-31T03:30:13.368Z,96765.72
2023-03-31T03:32:41.399Z,96770.28
2023-03-31T03:35:08.844Z,96760.31
2023-03-31T03:37:35.751Z,96758.97
2023-03-31T03:40:02.540Z,96755.47
2023-03-31T03:42:29.166Z,96752.28
2023-03-31T03:44:56.039Z,96741.75
2023-03-31T03:47:22.770Z,96752.28
2023-03-31T03:49:49.534Z,96749.88
2023-03-31T03:52:16.506Z,96745.03
2023-03-31T03:54:43.289Z,96736.22
2023-03-31T03:57:10.318Z,96738.66
2023-03-31T03:59:37.139Z,96721.25
2023-03-31T04:02:03.928Z,96719.59
2023-03-31T04:04:32.206Z,96724.69
2023-03-31T04:06:58.889Z,96716.63
2023-03-31T04:09:25.694Z,96716.09
2023-03-31T04:11:52.334Z,96712.34
2023-03-31T04:14:19.098Z,96700.53
2023-03-31T04:16:46.997Z,96698.94
2023-03-31T04:19:17.610Z,96704.03
2023-03-31T04:21:51.118Z,96708.03
2023-03-31T04:24:21.830Z,96705.63
2023-03-31T04:26:51.165Z,96706.69
2023-03-31T04:29:19.962Z,96701.06
2023-03-31T04:31:46.800Z,96704.28
2023-03-31T04:34:15.496Z,96707.78
2023-03-31T04:36:47.799Z,96706.47
2023-03-31T04:39:16.854Z,96702.13
2023-03-31T04:41:43.872Z,96703.22
2023-03-31T04:44:11.046Z,96708.88
2023-03-31T04:46:37.812Z,96697.63
2023-03-31T04:49:05.880Z,96697.91
2023-03-31T04:51:33.027Z,96701.16
2023-03-31T04:53:59.814Z,96708.41
2023-03-31T04:56:27.376Z,96699.03
2023-03-31T04:58:54.346Z,96700.13
2023-03-31T05:01:21.168Z,96694.78
2023-03-31T05:03:48.282Z,96692.66
2023-03-31T05:06:17.994Z,96698.06
2023-03-31T05:08:45.338Z,96693.22
2023-03-31T05:11:12.191Z,96695.13
2023-03-31T05:13:38.994Z,96697.81
2023-03-31T05:16:11.017Z,96696.47
2023-03-31T05:18:38.253Z,96692.72
2023-03-31T05:21:17.900Z,96698.66
2023-03-31T05:23:44.865Z,96696.22
2023-03-31T05:26:12.046Z,96693.28
2023-03-31T05:28:39.048Z,96683.34
2023-03-31T05:31:07.099Z,96682.53
2023-03-31T05:33:34.381Z,96683.59
2023-03-31T05:36:01.534Z,96679.56
2023-03-31T05:38:29.274Z,96681.72
2023-03-31T05:40:56.326Z,96672.84
2023-03-31T05:43:23.261Z,96671.81
2023-03-31T05:45:50.024Z,96672.59
2023-03-31T05:48:16.966Z,96672.31
2023-03-31T05:50:44.390Z,96676.09
2023-03-31T05:53:11.343Z,96665.88
2023-03-31T05:55:38.768Z,96667.50
2023-03-31T05:58:06.880Z,96663.19
2023-03-31T06:00:33.883Z,96660.00
2023-03-31T06:03:00.736Z,96654.91
2023-03-31T06:05:31.119Z,96657.28
2023-03-31T06:07:58.035Z,96658.09
2023-03-31T06:10:24.705Z,96668.56
2023-03-31T06:12:51.669Z,96664.81
2023-03-31T06:15:18.347Z,96668.03
2023-03-31T06:17:45.099Z,96657.84
2023-03-31T06:20:26.446Z,96653.81
2023-03-31T06:22:54.251Z,96658.94
2023-03-31T06:25:21.862Z,96658.13
2023-03-31T06:27:48.502Z,96654.34
2023-03-31T06:30:15.343Z,96651.16
2023-03-31T06:32:42.562Z,96664.34
2023-03-31T06:35:09.577Z,96672.94
2023-03-31T06:37:36.448Z,96665.41
2023-03-31T06:40:13.469Z,96665.94
2023-03-31T06:42:44.580Z,96674.00
2023-03-31T06:45:11.953Z,96680.72
2023-03-31T06:47:38.793Z,96668.09
2023-03-31T06:50:06.208Z,96665.69
2023-03-31T06:52:33.218Z,96675.38
2023-03-31T06:55:00.642Z,96681.53
2023-03-31T06:57:28.492Z,96663.28
2023-03-31T06:59:55.530Z,96660.03
2023-03-31T07:02:22.447Z,96667.28
2023-03-31T07:04:49.035Z,96670.78
2023-03-31T07:07:16.610Z,96673.72
2023-03-31T07:09:43.565Z,96676.16
2023-03-31T07:12:10.662Z,96679.38
2023-03-31T07:14:37.577Z,96672.38
2023-03-31T07:17:04.403Z,96666.50
2023-03-31T07:19:32.828Z,96681.53
2023-03-31T07:21:59.581Z,96680.19
2023-03-31T07:24:27.264Z,96675.59
2023-03-31T07:26:53.884Z,96676.13
2023-03-31T07:29:20.655Z,96670.50
2023-03-31T07:31:48.202Z,96660.28
2023-03-31T07:34:14.833Z,96655.72
2023-03-31T07:36:41.824Z,96653.56
2023-03-31T07:39:08.605Z,96664.31
2023-03-31T07:41:36.034Z,96664.59
2023-03-31T07:44:03.976Z,96658.94
2023-03-31T07:46:30.967Z,96655.44
2023-03-31T07:48:58.684Z,96666.44
2023-03-31T07:51:27.201Z,96650.34
2023-03-31T07:53:54.216Z,96670.22
2023-03-31T07:56:23.347Z,96671.03
2023-03-31T07:58:56.822Z,96670.22
2023-03-31T08:01:26.299Z,96668.88
2023-03-31T08:03:55.637Z,96665.09
2023-03-31T08:06:24.141Z,96662.94
2023-03-31T08:08:52.708Z,96665.38
2023-03-31T08:11:21.341Z,96664.84
2023-03-31T08:13:48.416Z,96662.66
2023-03-31T08:16:15.643Z,96668.03
2023-03-31T08:18:42.445Z,96662.09
2023-03-31T08:21:12.199Z,96671.75
2023-03-31T08:23:38.979Z,96666.13
2023-03-31T08:26:09.877Z,96667.72
2023-03-31T08:28:36.740Z,96674.41
2023-03-31T08:31:08.933Z,96669.03
2023-03-31T08:33:36.216Z,96666.91
2023-03-31T08:36:11.055Z,96669.59
2023-03-31T08:38:39.240Z,96669.56
2023-03-31T08:41:12.936Z,96669.84
2023-03-31T08:43:46.425Z,96671.66
2023-03-31T08:46:16.276Z,96674.34
2023-03-31T08:48:48.988Z,96661.19
2023-03-31T08:51:23.192Z,96671.13
2023-03-31T08:54:04.333Z,96674.06
2023-03-31T08:56:39.544Z,96671.38
2023-03-31T08:59:07.107Z,96668.41
2023-03-31T09:01:56.024Z,96662.47
2023-03-31T09:04:33.108Z,96667.56
2023-03-31T09:07:31.071Z,96670.50
2023-03-31T09:10:13.082Z,96671.56
2023-03-31T09:12:46.166Z,96675.59
2023-03-31T09:15:37.698Z,96670.75
2023-03-31T09:18:19.242Z,96668.06
2023-03-31T09:20:51.698Z,96673.97
2023-03-31T09:23:39.090Z,96679.88
2023-03-31T09:26:12.947Z,96674.75
2023-03-31T09:28:40.540Z,96672.91
2023-03-31T09:31:17.000Z,96676.91
2023-03-31T09:33:48.195Z,96676.63
2023-03-31T09:36:17.963Z,96663.97
2023-03-31T09:38:46.514Z,96666.63
2023-03-31T09:41:16.260Z,96670.66
2023-03-31T09:43:43.888Z,96647.78
2023-03-31T09:46:20.002Z,96655.00
2023-03-31T09:48:59.012Z,96663.28
2023-03-31T09:51:32.899Z,96661.38
2023-03-31T09:54:12.672Z,96643.84
2023-03-31T09:56:42.558Z,96659.94
2023-03-31T09:59:30.061Z,96655.59
2023-03-31T10:02:00.304Z,96655.03
2023-03-31T10:04:32.439Z,96648.06
2023-03-31T10:07:04.128Z,96654.44
2023-03-31T10:09:33.773Z,96649.84
2023-03-31T10:12:06.399Z,96653.59
2023-03-31T10:14:40.382Z,96650.63
2023-03-31T10:17:07.934Z,96650.63
2023-03-31T10:19:37.947Z,96646.78
2023-03-31T10:22:17.161Z,96649.72
2023-03-31T10:24:48.347Z,96647.25
2023-03-31T10:27:27.615Z,96649.13
2023-03-31T10:29:59.450Z,96651.84
2023-03-31T10:32:29.378Z,96644.53
2023-03-31T10:34:57.956Z,96645.63
2023-03-31T10:37:27.622Z,96639.38
2023-03-31T10:40:19.604Z,96638.81
2023-03-31T10:42:47.924Z,96633.34
2023-03-31T10:45:35.697Z,96633.09
2023-03-31T10:48:05.175Z,96630.88
2023-03-31T10:50:37.349Z,96627.34
2023-03-31T10:53:13.143Z,96620.81
2023-03-31T10:55:42.950Z,96629.13
2023-03-31T10:59:04.584Z,96624.72
2023-03-31T11:01:33.312Z,96622.25
2023-03-31T11:04:22.036Z,96616.56
2023-03-31T11:06:54.921Z,96621.63
2023-03-31T11:09:40.846Z,96621.84
2023-03-31T11:12:45.344Z,96625.06
2023-03-31T11:15:25.706Z,96610.50
2023-03-31T11:18:01.559Z,96609.69
2023-03-31T11:20:58.109Z,96614.50
2023-03-31T11:23:41.516Z,96614.72
2023-03-31T11:26:16.910Z,96607.69
2023-03-31T11:28:52.643Z,96598.97
2023-03-31T11:31:30.178Z,96610.81
2023-03-31T11:34:12.165Z,96606.47
2023-03-31T11:37:00.388Z,96603.16
2023-03-31T11:39:51.938Z,96599.31
2023-03-31T11:42:25.323Z,96594.34
2023-03-31T11:44:59.050Z,96584.09
2023-03-31T11:47:29.160Z,96580.19
2023-03-31T11:49:59.412Z,96587.63
2023-03-31T11:52:32.885Z,96588.91
2023-03-31T11:55:18.090Z,96586.91
2023-03-31T11:57:50.805Z,96579.75
2023-03-31T12:00:22.844Z,96574.69
2023-03-31T12:03:08.044Z,96572.44
2023-03-31T12:05:48.646Z,96573.56
2023-03-31T12:08:40.063Z,96571.41
2023-03-31T12:11:12.674Z,96571.63
2023-03-31T12:13:44.294Z,96565.34
2023-03-31T12:16:33.016Z,96559.44
2023-03-31T12:19:08.176Z,96562.47
2023-03-31T12:21:39.082Z,96562.38
2023-03-31T12:24:08.418Z,96566.88
2023-03-31T12:26:46.060Z,96572.78
2023-03-31T12:29:28.000Z,96559.56
2023-03-31T12:31:59.065Z,96562.47
2023-03-31T12:34:28.403Z,96565.38
2023-03-31T12:37:04.182Z,96559.19
2023-03-31T12:39:58.757Z,96559.97
2023-03-31T12:42:53.184Z,96558.00
2023-03-31T12:45:40.595Z,96550.88
2023-03-31T12:48:28.181Z,96554.84
2023-03-31T12:51:09.715Z,96541.25
2023-03-31T12:53:45.200Z,96543.91
2023-03-31T12:56:12.449Z,96534.50
2023-03-31T12:58:44.561Z,96525.31
2023-03-31T13:01:15.005Z,96524.53
2023-03-31T13:03:51.156Z,96523.13
2023-03-31T13:06:38.324Z,96524.38
2023-03-31T13:09:09.250Z,96509.09
2023-03-31T13:11:38.920Z,96510.94
2023-03-31T13:14:39.409Z,96502.47
2023-03-31T13:17:30.821Z,96496.13
2023-03-31T13:20:17.201Z,96474.09
2023-03-31T13:22:48.722Z,96487.06
2023-03-31T13:25:30.947Z,96484.56
2023-03-31T13:28:04.895Z,96488.38
2023-03-31T13:30:41.469Z,96477.72
2023-03-31T13:33:12.045Z,96464.50
2023-03-31T13:35:43.033Z,96466.28
2023-03-31T13:38:15.285Z,96458.13
2023-03-31T13:41:00.700Z,96463.88
2023-03-31T13:43:48.647Z,96450.81
2023-03-31T13:46:33.803Z,96460.53
2023-03-31T13:49:12.518Z,96446.19
2023-03-31T13:51:58.447Z,96443.00
2023-03-31T13:55:18.711Z,96450.19
2023-03-31T13:58:24.691Z,96448.78
2023-03-31T14:01:17.115Z,96441.81
2023-03-31T14:04:05.582Z,96441.06
2023-03-31T14:06:41.967Z,96442.56
2023-03-31T14:09:12.664Z,96439.38
2023-03-31T14:11:39.785Z,96440.53
2023-03-31T14:14:06.888Z,96434.22
2023-03-31T14:16:41.093Z,96437.44
2023-03-31T14:19:23.553Z,96427.09
2023-03-31T14:22:15.109Z,96430.75
2023-03-31T14:24:53.738Z,96427.56
2023-03-31T14:27:29.503Z,96427.84
2023-03-31T14:30:22.849Z,96443.91
2023-03-31T14:33:17.568Z,96446.41
2023-03-31T14:36:32.766Z,96449.25
2023-03-31T14:39:06.478Z,96446.34
2023-03-31T14:41:33.444Z,96449.25
2023-03-31T14:44:06.323Z,96448.78
2023-03-31T14:46:38.162Z,96450.69
2023-03-31T14:49:29.651Z,96443.47
2023-03-31T14:52:01.568Z,96442.31
2023-03-31T14:54:28.230Z,96444.63
2023-03-31T14:56:58.559Z,96439.53
2023-03-31T14:59:29.185Z,96436.94
2023-03-31T15:01:59.601Z,96438.75
2023-03-31T15:04:41.524Z,96443.53
2023-03-31T15:07:09.070Z,96440.19
2023-03-31T15:09:38.724Z,96438.91
2023-03-31T15:12:12.408Z,96436.81
2023-03-31T15:15:02.598Z,96423.38
2023-03-31T15:17:33.110Z,96434.28
2023-03-31T15:20:04.901Z,96433.06
2023-03-31T15:22:31.613Z,96432.44
2023-03-31T15:24:58.401Z,96438.84
2023-03-31T15:27:45.051Z,96436.13
2023-03-31T15:30:21.757Z,96425.75
2023-03-31T15:32:50.172Z,96420.75
2023-03-31T15:35:37.301Z,96420.06
2023-03-31T15:38:06.606Z,96423.09
2023-03-31T15:40:43.110Z,96420.38
2023-03-31T15:43:44.943Z,96432.81
2023-03-31T15:46:20.720Z,96436.50
2023-03-31T15:48:53.386Z,96429.66
2023-03-31T15:51:34.202Z,96418.22
2023-03-31T15:54:01.315Z,96407.19
2023-03-31T15:56:45.723Z,96407.00
2023-03-31T16:02:17.914Z,96412.53
2023-03-31T16:04:49.106Z,96407.28
2023-03-31T16:07:28.777Z,96405.97
2023-03-31T16:10:00.392Z,96404.38
2023-03-31T16:12:59.348Z,96399.56
2023-03-31T16:13:34.495Z,96418.97
2023-03-31T16:15:37.091Z,96413.25
2023-03-31T16:18:14.070Z,96406.50
2023-03-31T16:20:46.263Z,96398.47
2023-03-31T16:23:27.005Z,96397.50
2023-03-31T16:25:54.907Z,96398.56
2023-03-31T16:28:26.266Z,96402.31
2023-03-31T16:30:54.647Z,96404.16
2023-03-31T16:33:24.630Z,96406.97
2023-03-31T16:35:55.501Z,96405.97
2023-03-31T16:38:29.823Z,96396.19
2023-03-31T16:40:58.350Z,96397.03
2023-03-31T16:43:27.633Z,96405.88
2023-03-31T16:45:59.460Z,96392.84
2023-03-31T16:48:28.407Z,96397.06
2023-03-31T16:50:57.520Z,96394.50
2023-03-31T16:53:27.940Z,96397.91
2023-03-31T16:55:56.271Z,96399.38
2023-03-31T16:58:28.419Z,96393.06
2023-03-31T17:00:55.760Z,96384.69
2023-03-31T17:03:23.057Z,96371.16
2023-03-31T17:05:56.849Z,96387.09
2023-03-31T17:08:27.849Z,96390.66
2023-03-31T17:11:11.318Z,96396.06
2023-03-31T17:13:39.680Z,96397.28
2023-03-31T17:18:53.895Z,96402.88
2023-03-31T17:21:20.744Z,96400.66
2023-03-31T17:23:47.878Z,96398.41
2023-03-31T17:26:15.666Z,96418.41
2023-03-31T17:28:42.739Z,96419.09
2023-03-31T17:31:21.782Z,96414.16
2023-03-31T17:33:48.733Z,96416.28
2023-03-31T17:36:15.869Z,96421.66
2023-03-31T17:38:43.463Z,96421.75
2023-03-31T17:41:12.967Z,96419.72
2023-03-31T17:43:40.537Z,96417.47
2023-03-31T17:46:13.776Z,96415.94
2023-03-31T17:48:41.525Z,96425.19
2023-03-31T17:51:10.727Z,96418.84
2023-03-31T17:53:37.589Z,96414.13
2023-03-31T17:56:05.677Z,96422.56
2023-03-31T17:58:32.877Z,96425.66
2023-03-31T18:01:00.426Z,96424.16
2023-03-31T18:03:30.113Z,96423.72
2023-03-31T18:05:57.062Z,96426.75
2023-03-31T18:08:23.939Z,96430.00
2023-03-31T18:10:50.767Z,96429.25
2023-03-31T18:13:17.581Z,96430.91
2023-03-31T18:15:51.550Z,96425.59
2023-03-31T18:18:19.430Z,96423.47
2023-03-31T18:20:46.140Z,96417.63
2023-03-31T18:23:17.575Z,96421.94
2023-03-31T18:25:46.271Z,96415.72
2023-03-31T18:28:18.003Z,96406.09
2023-03-31T18:30:45.094Z,96404.25
2023-03-31T18:33:12.964Z,96395.13
2023-03-31T18:35:39.952Z,96391.72
2023-03-31T18:38:07.492Z,96400.88
2023-03-31T18:40:34.189Z,96392.84
2023-03-31T18:43:01.175Z,96393.97
2023-03-31T18:45:28.374Z,96390.53
2023-03-31T18:47:55.183Z,96373.91
2023-03-31T18:50:26.266Z,96372.66
2023-03-31T18:52:54.590Z,96378.34
2023-03-31T18:55:22.157Z,96369.78
2023-03-31T18:57:49.464Z,96368.94
2023-03-31T19:00:17.454Z,96362.78
2023-03-31T19:02:44.421Z,96364.41
2023-03-31T19:05:11.389Z,96367.66
2023-03-31T19:07:38.327Z,96375.25
2023-03-31T19:10:05.431Z,96373.97
2023-03-31T19:12:32.232Z,96379.91
2023-03-31T19:14:59.628Z,96378.06
2023-03-31T19:17:26.350Z,96372.69
2023-03-31T19:19:53.035Z,96359.63
2023-03-31T19:22:20.003Z,96352.91
2023-03-31T19:24:47.011Z,96358.28
2023-03-31T19:27:14.024Z,96343.53
2023-03-31T19:29:41.222Z,96366.81
2023-03-31T19:32:07.968Z,96367.63
2023-03-31T19:34:34.649Z,96362.00
2023-03-31T19:37:02.229Z,96357.16
2023-03-31T19:39:29.111Z,96354.47
2023-03-31T19:41:55.772Z,96349.41
2023-03-31T19:44:22.950Z,96350.19
2023-03-31T19:46:49.626Z,96353.94
2023-03-31T19:49:16.594Z,96361.50
2023-03-31T19:51:43.665Z,96356.69
2023-03-31T19:54:11.801Z,96358.88
2023-03-31T19:56:39.225Z,96356.97
2023-03-31T19:59:06.105Z,96346.50
2023-03-31T20:01:32.997Z,96342.75
2023-03-31T20:04:01.336Z,96350.81
2023-03-31T20:06:30.442Z,96341.41
2023-03-31T20:08:59.550Z,96337.69
2023-03-31T20:11:27.698Z,96336.59
2023-03-31T20:13:55.968Z,96339.56
2023-03-31T20:16:25.764Z,96336.38
2023-03-31T20:19:13.017Z,96336.63
2023-03-31T20:21:39.699Z,96333.16
2023-03-31T20:24:06.849Z,96337.25
2023-03-31T20:26:34.919Z,96333.22
2023-03-31T20:29:03.893Z,96329.22
2023-03-31T20:31:34.123Z,96322.53
2023-03-31T20:34:01.166Z,96315.81
2023-03-31T20:36:31.682Z,96307.25
2023-03-31T20:39:00.043Z,96305.94
2023-03-31T20:41:29.482Z,96305.72
2023-03-31T20:43:56.732Z,96305.72
2023-03-31T20:46:23.895Z,96295.25
2023-03-31T20:48:53.501Z,96292.59
2023-03-31T20:51:23.677Z,96277.56
2023-03-31T20:53:53.127Z,96272.19
2023-03-31T20:56:26.114Z,96268.72
2023-03-31T20:58:59.059Z,96267.63
2023-03-31T21:01:28.012Z,96270.84
2023-03-31T21:03:55.096Z,96281.06
2023-03-31T21:06:21.970Z,96291.78
2023-03-31T21:08:53.880Z,96277.56
2023-03-31T21:11:22.639Z,96267.13
2023-03-31T21:13:49.993Z,96262.00
2023-03-31T21:16:17.717Z,96262.81
2023-03-31T21:18:44.496Z,96269.50
2023-03-31T21:21:16.187Z,96258.75
2023-03-31T21:23:43.003Z,96269.75
2023-03-31T21:26:20.365Z,96264.91
2023-03-31T21:28:48.325Z,96266.28
2023-03-31T21:31:18.068Z,96267.59
2023-03-31T21:33:46.484Z,96273.50
2023-03-31T21:36:16.511Z,96276.97
2023-03-31T21:38:44.755Z,96276.72
2023-03-31T21:41:17.175Z,96272.66
2023-03-31T21:43:44.415Z,96272.09
2023-03-31T21:46:17.636Z,96257.91
2023-03-31T21:48:44.964Z,96254.84
2023-03-31T21:51:12.054Z,96248.94
2023-03-31T21:53:38.925Z,96246.59
2023-03-31T21:56:05.885Z,96238.50
2023-03-31T21:58:33.056Z,96236.06
2023-03-31T22:01:02.910Z,96222.06
2023-03-31T22:03:34.371Z,96220.91
2023-03-31T22:06:04.416Z,96222.16
2023-03-31T22:08:31.918Z,96217.28
2023-03-31T22:11:00.370Z,96216.16
2023-03-31T22:13:29.310Z,96217.44
2023-03-31T22:15:56.520Z,96220.66
2023-03-31T22:18:23.727Z,96209.13
2023-03-31T22:20:50.864Z,96200.81
2023-03-31T22:23:17.838Z,96195.16
2023-03-31T22:25:44.525Z,96190.00
2023-03-31T22:28:11.584Z,96182.97
2023-03-31T22:30:38.219Z,96190.38
2023-03-31T22:33:04.966Z,96170.97
2023-03-31T22:35:31.993Z,96173.53
2023-03-31T22:37:59.301Z,96164.31
2023-03-31T22:40:26.333Z,96153.50
2023-03-31T22:42:54.890Z,96160.38
2023-03-31T22:45:21.614Z,96165.09
2023-03-31T22:47:48.363Z,96159.72
2023-03-31T22:50:15.053Z,96166.63
2023-03-31T22:52:41.689Z,96166.13
2023-03-31T22:55:08.648Z,96162.41
2023-03-31T22:57:35.436Z,96156.25
2023-03-31T23:00:02.152Z,96140.88
2023-03-31T23:02:28.857Z,96145.16
2023-03-31T23:04:56.043Z,96140.09
2023-03-31T23:07:22.841Z,96140.09
2023-03-31T23:09:49.687Z,96136.88
2023-03-31T23:12:16.530Z,96142.47
2023-03-31T23:14:43.201Z,96148.44
2023-03-31T23:17:09.930Z,96148.44
2023-03-31T23:19:37.861Z,96144.66
2023-03-31T23:22:04.621Z,96145.47
2023-03-31T23:24:31.438Z,96150.25
2023-03-31T23:26:58.220Z,96126.91
2023-03-31T23:29:24.899Z,96131.19
2023-03-31T23:31:52.103Z,96125.31
2023-03-31T23:34:18.949Z,96127.72
2023-03-31T23:36:45.594Z,96137.66
2023-03-31T23:39:12.246Z,96121.25
2023-03-31T23:41:39.138Z,96115.88
2023-03-31T23:44:06.342Z,96104.28
2023-03-31T23:46:33.803Z,96111.50
2023-03-31T23:49:02.717Z,96112.22
2023-03-31T23:51:29.490Z,96109.25
2023-03-31T23:53:56.381Z,96109.25
2023-03-31T23:56:23.173Z,96107.06
2023-03-31T23:58:50.001Z,96108.66
